createdAt,value
2023-05-09T00:01:15.217Z,100.00
2023-05-09T00:03:44.677Z,100.00
2023-05-09T00:06:11.861Z,100.00
2023-05-09T00:08:38.577Z,100.00
2023-05-09T00:11:05.565Z,100.00
2023-05-09T00:13:32.177Z,100.00
2023-05-09T00:15:59.192Z,100.00
2023-05-09T00:18:25.870Z,100.00
2023-05-09T00:20:52.550Z,100.00
2023-05-09T00:23:19.166Z,100.00
2023-05-09T00:25:45.881Z,100.00
2023-05-09T00:28:12.570Z,100.00
2023-05-09T00:30:39.196Z,100.00
2023-05-09T00:33:06.633Z,100.00
2023-05-09T00:35:33.346Z,100.00
2023-05-09T00:37:59.983Z,100.00
2023-05-09T00:40:26.669Z,100.00
2023-05-09T00:42:53.535Z,100.00
2023-05-09T00:45:20.459Z,100.00
2023-05-09T00:47:47.155Z,100.00
2023-05-09T00:50:14.111Z,100.00
2023-05-09T00:52:41.762Z,100.00
2023-05-09T00:55:09.169Z,100.00
2023-05-09T00:57:36.811Z,100.00
2023-05-09T01:00:04.795Z,100.00
2023-05-09T01:02:32.432Z,100.00
2023-05-09T01:04:59.407Z,100.00
2023-05-09T01:07:35.661Z,100.00
2023-05-09T01:10:20.186Z,100.00
2023-05-09T01:13:01.097Z,100.00
2023-05-09T01:15:34.234Z,100.00
2023-05-09T01:18:09.704Z,100.00
2023-05-09T01:20:46.105Z,100.00
2023-05-09T01:23:41.678Z,100.00
2023-05-09T01:26:36.670Z,100.00
2023-05-09T01:29:20.268Z,100.00
2023-05-09T01:31:49.465Z,100.00
2023-05-09T01:34:18.498Z,100.00
2023-05-09T01:36:49.675Z,100.00
2023-05-09T01:39:18.209Z,100.00
2023-05-09T01:41:46.550Z,100.00
2023-05-09T01:44:16.136Z,100.00
2023-05-09T01:46:44.399Z,100.00
2023-05-09T01:49:12.227Z,100.00
2023-05-09T01:51:40.784Z,100.00
2023-05-09T01:54:10.228Z,100.00
2023-05-09T01:56:38.067Z,100.00
2023-05-09T01:59:06.899Z,100.00
2023-05-09T02:01:35.140Z,100.00
2023-05-09T02:04:05.285Z,100.00
2023-05-09T02:06:32.846Z,100.00
2023-05-09T02:08:59.738Z,100.00
2023-05-09T02:11:26.521Z,100.00
2023-05-09T02:13:53.216Z,100.00
2023-05-09T02:16:20.818Z,100.00
2023-05-09T02:18:48.121Z,100.00
2023-05-09T02:21:14.803Z,100.00
2023-05-09T02:23:41.685Z,100.00
2023-05-09T02:26:08.579Z,100.00
2023-05-09T02:28:36.656Z,100.00
2023-05-09T02:31:07.288Z,100.00
2023-05-09T02:33:38.328Z,100.00
2023-05-09T02:36:06.162Z,100.00
2023-05-09T02:38:32.993Z,100.00
2023-05-09T02:40:59.610Z,100.00
2023-05-09T02:43:26.311Z,100.00
2023-05-09T02:45:53.005Z,100.00
2023-05-09T02:48:19.957Z,100.00
2023-05-09T02:50:46.849Z,100.00
2023-05-09T02:53:13.596Z,100.00
2023-05-09T02:55:40.293Z,100.00
2023-05-09T02:58:14.363Z,100.00
2023-05-09T03:00:42.106Z,100.00
2023-05-09T03:03:09.178Z,100.00
2023-05-09T03:05:35.972Z,100.00
2023-05-09T03:08:02.620Z,100.00
2023-05-09T03:10:29.318Z,100.00
2023-05-09T03:12:56.004Z,100.00
2023-05-09T03:15:22.781Z,100.00
2023-05-09T03:17:49.502Z,100.00
2023-05-09T03:22:54.410Z,100.00
2023-05-09T03:25:21.204Z,100.00
2023-05-09T03:27:47.820Z,100.00
2023-05-09T03:30:14.821Z,100.00
2023-05-09T03:32:41.522Z,100.00
2023-05-09T03:35:08.431Z,100.00
2023-05-09T03:37:35.045Z,100.00
2023-05-09T03:40:01.670Z,100.00
2023-05-09T03:42:28.284Z,100.00
2023-05-09T03:44:55.610Z,100.00
2023-05-09T03:47:22.290Z,100.00
2023-05-09T03:49:49.282Z,100.00
2023-05-09T03:52:16.030Z,100.00
2023-05-09T03:54:42.623Z,100.00
2023-05-09T03:57:09.283Z,100.00
2023-05-09T03:59:35.991Z,100.00
2023-05-09T04:02:03.523Z,100.00
2023-05-09T04:04:30.337Z,100.00
2023-05-09T04:06:57.263Z,100.00
2023-05-09T04:09:23.901Z,100.00
2023-05-09T04:11:50.526Z,100.00
2023-05-09T04:14:17.210Z,100.00
2023-05-09T04:16:43.845Z,100.00
2023-05-09T04:19:10.871Z,100.00
2023-05-09T04:21:37.835Z,100.00
2023-05-09T04:24:04.617Z,100.00
2023-05-09T04:26:31.669Z,100.00
2023-05-09T04:28:58.386Z,100.00
2023-05-09T04:31:25.167Z,100.00
2023-05-09T04:33:52.433Z,100.00
2023-05-09T04:36:19.076Z,100.00
2023-05-09T04:38:45.703Z,100.00
2023-05-09T04:41:12.360Z,100.00
2023-05-09T04:43:38.979Z,100.00
2023-05-09T04:46:05.835Z,100.00
2023-05-09T04:48:32.585Z,100.00
2023-05-09T04:50:59.461Z,100.00
2023-05-09T04:53:26.969Z,100.00
2023-05-09T04:55:53.642Z,100.00
2023-05-09T04:58:20.828Z,100.00
2023-05-09T05:00:47.421Z,100.00
2023-05-09T05:03:14.069Z,100.00
2023-05-09T05:05:41.796Z,100.00
2023-05-09T05:08:08.555Z,100.00
2023-05-09T05:10:35.238Z,100.00
2023-05-09T05:13:02.234Z,100.00
2023-05-09T05:15:28.926Z,100.00
2023-05-09T05:17:55.917Z,100.00
2023-05-09T05:20:22.890Z,100.00
2023-05-09T05:22:49.584Z,100.00
2023-05-09T05:25:17.885Z,100.00
2023-05-09T05:27:44.506Z,100.00
2023-05-09T05:30:11.862Z,100.00
2023-05-09T05:32:38.527Z,100.00
2023-05-09T05:35:05.740Z,100.00
2023-05-09T05:37:32.441Z,100.00
2023-05-09T05:39:59.216Z,100.00
2023-05-09T05:42:25.954Z,100.00
2023-05-09T05:44:52.627Z,100.00
2023-05-09T05:47:19.243Z,100.00
2023-05-09T05:49:46.214Z,100.00
2023-05-09T05:52:12.900Z,100.00
2023-05-09T05:54:39.558Z,100.00
2023-05-09T05:57:06.238Z,100.00
2023-05-09T05:59:32.886Z,99.92
2023-05-09T06:01:59.530Z,98.87
2023-05-09T06:04:26.225Z,99.01
2023-05-09T06:06:52.921Z,98.59
2023-05-09T06:11:50.891Z,97.87
2023-05-09T06:14:17.575Z,96.53
2023-05-09T06:16:44.280Z,96.00
2023-05-09T06:19:10.970Z,95.98
2023-05-09T06:21:37.649Z,96.64
2023-05-09T06:24:11.879Z,95.73
2023-05-09T06:26:41.159Z,95.82
2023-05-09T06:29:08.137Z,95.72
2023-05-09T06:31:38.761Z,94.48
2023-05-09T06:36:37.491Z,93.13
2023-05-09T06:39:04.395Z,93.41
2023-05-09T06:41:31.076Z,91.58
2023-05-09T06:43:57.820Z,90.46
2023-05-09T06:46:24.773Z,90.32
2023-05-09T06:48:51.485Z,90.47
2023-05-09T06:51:18.218Z,89.94
2023-05-09T06:53:44.903Z,89.69
2023-05-09T06:56:12.146Z,87.63
2023-05-09T06:58:38.870Z,86.17
2023-05-09T07:01:05.832Z,85.14
2023-05-09T07:03:32.484Z,83.51
2023-05-09T07:06:00.103Z,84.87
2023-05-09T07:08:27.223Z,85.80
2023-05-09T07:10:53.984Z,86.25
2023-05-09T07:13:20.754Z,86.44
2023-05-09T07:15:47.491Z,85.98
2023-05-09T07:18:14.124Z,85.45
2023-05-09T07:20:41.350Z,83.48
2023-05-09T07:23:08.106Z,83.03
2023-05-09T07:30:51.397Z,80.28
2023-05-09T07:33:18.089Z,79.18
2023-05-09T07:35:44.720Z,79.02
2023-05-09T07:38:11.449Z,78.35
2023-05-09T07:40:38.950Z,78.73
2023-05-09T07:45:38.443Z,77.01
2023-05-09T07:48:05.718Z,76.09
2023-05-09T07:50:32.395Z,74.70
2023-05-09T07:53:00.215Z,75.28
2023-05-09T07:55:26.905Z,73.47
2023-05-09T07:57:53.577Z,74.89
2023-05-09T08:00:24.088Z,75.05
2023-05-09T08:02:54.575Z,73.03
2023-05-09T08:05:21.370Z,72.14
2023-05-09T08:07:48.065Z,72.13
2023-05-09T08:10:14.843Z,71.57
2023-05-09T08:12:41.651Z,69.90
2023-05-09T08:15:08.636Z,68.25
2023-05-09T08:17:35.590Z,68.25
2023-05-09T08:20:02.275Z,66.53
2023-05-09T08:22:29.538Z,66.00
2023-05-09T08:24:56.152Z,66.35
2023-05-09T08:27:22.786Z,63.22
2023-05-09T08:29:49.488Z,63.42
2023-05-09T08:32:16.579Z,63.39
2023-05-09T08:34:43.334Z,64.42
2023-05-09T08:37:10.426Z,60.93
2023-05-09T08:39:38.119Z,62.35
2023-05-09T08:42:04.872Z,60.43
2023-05-09T08:44:32.328Z,59.81
2023-05-09T08:47:01.307Z,59.72
2023-05-09T08:49:28.932Z,61.11
2023-05-09T08:51:56.849Z,60.53
2023-05-09T08:54:24.470Z,59.42
2023-05-09T08:56:51.566Z,58.84
2023-05-09T08:59:19.537Z,58.76
2023-05-09T09:01:46.558Z,57.30
2023-05-09T09:04:13.269Z,55.63
2023-05-09T09:06:40.823Z,57.42
2023-05-09T09:09:09.377Z,56.11
2023-05-09T09:11:37.104Z,55.33
2023-05-09T09:14:11.819Z,54.99
2023-05-09T09:16:39.082Z,54.31
2023-05-09T09:19:12.458Z,56.25
2023-05-09T09:21:42.482Z,51.83
2023-05-09T09:24:09.835Z,52.56
2023-05-09T09:26:46.413Z,53.03
2023-05-09T09:29:13.828Z,53.24
2023-05-09T09:31:44.823Z,53.75
2023-05-09T09:34:12.383Z,53.81
2023-05-09T09:36:39.058Z,52.16
2023-05-09T09:39:05.928Z,50.40
2023-05-09T09:41:37.967Z,53.74
2023-05-09T09:46:56.251Z,51.87
2023-05-09T09:49:25.729Z,51.48
2023-05-09T09:51:57.632Z,50.67
2023-05-09T09:54:28.019Z,50.68
2023-05-09T09:56:55.413Z,50.56
2023-05-09T09:59:26.927Z,49.26
2023-05-09T10:02:07.504Z,48.93
2023-05-09T10:04:37.056Z,50.43
2023-05-09T10:07:06.369Z,49.71
2023-05-09T10:09:35.336Z,50.60
2023-05-09T10:12:04.923Z,50.52
2023-05-09T10:14:35.130Z,50.46
2023-05-09T10:17:04.793Z,50.18
2023-05-09T10:19:32.248Z,51.50
2023-05-09T10:22:08.359Z,50.27
2023-05-09T10:24:40.774Z,49.59
2023-05-09T10:27:12.003Z,50.75
2023-05-09T10:29:51.908Z,51.34
2023-05-09T10:32:29.551Z,49.90
2023-05-09T10:35:02.256Z,51.29
2023-05-09T10:37:30.190Z,50.88
2023-05-09T10:39:58.050Z,50.63
2023-05-09T10:42:25.483Z,51.18
2023-05-09T10:44:53.763Z,52.22
2023-05-09T10:47:27.053Z,51.63
2023-05-09T10:49:55.047Z,49.28
2023-05-09T10:52:22.976Z,50.35
2023-05-09T10:55:01.513Z,50.25
2023-05-09T10:57:29.796Z,49.57
2023-05-09T10:59:57.304Z,51.33
2023-05-09T11:02:29.640Z,51.01
2023-05-09T11:05:16.954Z,51.78
2023-05-09T11:07:43.834Z,51.12
2023-05-09T11:10:18.446Z,50.35
2023-05-09T11:12:58.942Z,51.63
2023-05-09T11:15:27.918Z,50.69
2023-05-09T11:18:15.313Z,50.39
2023-05-09T11:20:48.462Z,50.20
2023-05-09T11:23:25.788Z,50.23
2023-05-09T11:25:53.331Z,49.89
2023-05-09T11:28:30.733Z,49.84
2023-05-09T11:31:19.080Z,51.59
2023-05-09T11:33:49.332Z,50.55
2023-05-09T11:36:20.167Z,50.50
2023-05-09T11:38:47.886Z,50.67
2023-05-09T11:41:15.913Z,51.19
2023-05-09T11:46:22.464Z,52.51
2023-05-09T11:48:49.468Z,53.29
2023-05-09T11:51:19.677Z,53.04
2023-05-09T11:53:49.953Z,54.17
2023-05-09T11:56:16.955Z,53.81
2023-05-09T11:58:44.252Z,54.79
2023-05-09T12:01:14.005Z,54.59
2023-05-09T12:03:46.540Z,53.73
2023-05-09T12:06:18.543Z,54.92
2023-05-09T12:08:46.504Z,52.98
2023-05-09T12:11:14.282Z,54.66
2023-05-09T12:13:49.150Z,54.43
2023-05-09T12:16:17.659Z,53.67
2023-05-09T12:18:49.580Z,54.25
2023-05-09T12:21:17.440Z,54.63
2023-05-09T12:23:44.816Z,55.07
2023-05-09T12:26:11.478Z,55.39
2023-05-09T12:28:39.111Z,56.09
2023-05-09T12:31:07.074Z,55.40
2023-05-09T12:33:34.045Z,55.87
2023-05-09T12:36:12.355Z,56.85
2023-05-09T12:38:39.616Z,56.78
2023-05-09T12:41:15.379Z,55.82
2023-05-09T12:46:27.188Z,55.33
2023-05-09T12:48:54.253Z,52.24
2023-05-09T12:51:22.153Z,52.96
2023-05-09T12:53:49.549Z,53.30
2023-05-09T12:56:20.685Z,53.43
2023-05-09T12:58:52.008Z,52.80
2023-05-09T13:03:52.533Z,52.58
2023-05-09T13:06:19.884Z,53.41
2023-05-09T13:08:59.222Z,54.88
2023-05-09T13:11:26.064Z,53.59
2023-05-09T13:13:56.215Z,52.93
2023-05-09T13:16:23.048Z,51.65
2023-05-09T13:18:49.754Z,51.45
2023-05-09T13:21:16.530Z,52.45
2023-05-09T13:23:44.688Z,51.50
2023-05-09T13:26:11.451Z,52.19
2023-05-09T13:31:16.475Z,52.25
2023-05-09T13:33:43.117Z,52.23
2023-05-09T13:36:09.840Z,51.89
2023-05-09T13:38:39.065Z,51.34
2023-05-09T13:41:06.217Z,51.08
2023-05-09T13:43:32.956Z,52.05
2023-05-09T13:45:59.648Z,51.95
2023-05-09T13:48:26.343Z,52.23
2023-05-09T13:50:53.070Z,52.98
2023-05-09T13:53:19.990Z,51.52
2023-05-09T13:55:47.405Z,51.49
2023-05-09T13:58:14.110Z,52.25
2023-05-09T14:00:40.920Z,53.18
2023-05-09T14:03:07.664Z,52.34
2023-05-09T14:05:34.864Z,52.64
2023-05-09T14:08:01.956Z,51.51
2023-05-09T14:10:28.657Z,50.58
2023-05-09T14:12:55.325Z,51.86
2023-05-09T14:15:21.999Z,51.11
2023-05-09T14:17:48.628Z,51.70
2023-05-09T14:20:18.462Z,54.00
2023-05-09T14:22:45.228Z,54.20
2023-05-09T14:25:11.862Z,53.09
2023-05-09T14:27:38.625Z,53.53
2023-05-09T14:30:05.672Z,52.70
2023-05-09T14:32:32.942Z,52.33
2023-05-09T14:34:59.825Z,52.39
2023-05-09T14:37:26.553Z,54.92
2023-05-09T14:39:53.196Z,55.15
2023-05-09T14:42:20.062Z,55.37
2023-05-09T14:44:47.504Z,56.32
2023-05-09T14:49:52.718Z,56.75
2023-05-09T14:52:19.389Z,55.30
2023-05-09T14:54:46.100Z,55.74
2023-05-09T14:57:12.806Z,56.11
2023-05-09T14:59:39.487Z,64.09
2023-05-09T15:02:06.318Z,68.63
2023-05-09T15:04:33.085Z,71.37
2023-05-09T15:06:59.986Z,80.61
2023-05-09T15:09:27.013Z,81.66
2023-05-09T15:11:54.254Z,86.20
2023-05-09T15:14:20.922Z,90.12
2023-05-09T15:16:47.655Z,93.18
2023-05-09T15:19:14.930Z,96.82
2023-05-09T15:21:41.698Z,100.00
2023-05-09T15:24:08.676Z,100.00
2023-05-09T15:26:35.377Z,100.00
2023-05-09T15:31:39.804Z,91.92
2023-05-09T15:34:06.724Z,99.98
2023-05-09T15:36:34.255Z,96.56
2023-05-09T15:39:01.246Z,100.00
2023-05-09T15:41:28.871Z,100.00
2023-05-09T15:43:55.539Z,97.03
2023-05-09T15:46:22.540Z,99.87
2023-05-09T15:48:49.499Z,100.00
2023-05-09T15:51:16.608Z,100.00
2023-05-09T15:53:43.222Z,100.00
2023-05-09T15:56:09.947Z,100.00
2023-05-09T15:58:37.012Z,100.00
2023-05-09T16:01:06.388Z,97.75
2023-05-09T16:03:33.249Z,100.00
2023-05-09T16:06:00.106Z,93.21
2023-05-09T16:08:26.950Z,94.17
2023-05-09T16:10:53.651Z,98.81
2023-05-09T16:13:20.348Z,100.00
2023-05-09T16:15:48.286Z,100.00
2023-05-09T16:18:14.945Z,100.00
2023-05-09T16:20:42.229Z,100.00
2023-05-09T16:23:08.877Z,99.65
2023-05-09T16:25:35.656Z,94.48
2023-05-09T16:28:02.528Z,100.00
2023-05-09T16:30:29.659Z,100.00
2023-05-09T16:32:56.632Z,100.00
2023-05-09T16:35:23.441Z,100.00
2023-05-09T16:37:50.178Z,100.00
2023-05-09T16:40:17.002Z,100.00
2023-05-09T16:45:15.206Z,100.00
2023-05-09T16:47:41.973Z,100.00
2023-05-09T16:50:10.606Z,100.00
2023-05-09T16:52:37.473Z,100.00
2023-05-09T16:55:04.458Z,100.00
2023-05-09T16:57:31.128Z,100.00
2023-05-09T16:59:58.687Z,100.00
2023-05-09T17:02:25.518Z,100.00
2023-05-09T17:04:52.305Z,100.00
2023-05-09T17:07:19.420Z,100.00
2023-05-09T17:09:46.198Z,100.00
2023-05-09T17:12:17.672Z,100.00
2023-05-09T17:14:45.575Z,100.00
2023-05-09T17:17:13.322Z,100.00
2023-05-09T17:19:40.111Z,100.00
2023-05-09T17:22:08.165Z,100.00
2023-05-09T17:24:34.852Z,100.00
2023-05-09T17:27:01.982Z,100.00
2023-05-09T17:29:30.820Z,100.00
2023-05-09T17:32:01.080Z,100.00
2023-05-09T17:34:28.651Z,100.00
2023-05-09T17:36:55.598Z,100.00
2023-05-09T17:39:22.290Z,100.00
2023-05-09T17:41:48.920Z,100.00
2023-05-09T17:46:49.608Z,100.00
2023-05-09T17:49:17.085Z,100.00
2023-05-09T17:51:44.107Z,100.00
2023-05-09T17:54:11.136Z,100.00
2023-05-09T17:56:37.758Z,100.00
2023-05-09T17:59:04.510Z,100.00
2023-05-09T18:01:31.194Z,100.00
2023-05-09T18:03:58.100Z,100.00
2023-05-09T18:06:26.223Z,100.00
2023-05-09T18:08:52.906Z,100.00
2023-05-09T18:11:19.564Z,100.00
2023-05-09T18:13:46.298Z,100.00
2023-05-09T18:16:13.277Z,100.00
2023-05-09T18:18:39.941Z,100.00
2023-05-09T18:21:08.172Z,100.00
2023-05-09T18:23:34.841Z,100.00
2023-05-09T18:26:01.946Z,100.00
2023-05-09T18:28:29.045Z,100.00
2023-05-09T18:30:58.375Z,100.00
2023-05-09T18:33:28.965Z,100.00
2023-05-09T18:35:55.781Z,100.00
2023-05-09T18:38:22.932Z,100.00
2023-05-09T18:40:51.957Z,100.00
2023-05-09T18:43:20.867Z,100.00
2023-05-09T18:45:48.254Z,100.00
2023-05-09T18:48:16.532Z,100.00
2023-05-09T18:50:43.516Z,100.00
2023-05-09T18:53:10.139Z,100.00
2023-05-09T18:55:36.731Z,100.00
2023-05-09T18:58:03.406Z,100.00
2023-05-09T19:00:30.113Z,100.00
2023-05-09T19:02:56.866Z,100.00
2023-05-09T19:05:23.577Z,100.00
2023-05-09T19:07:51.257Z,100.00
2023-05-09T19:10:18.718Z,100.00
2023-05-09T19:12:46.319Z,100.00
2023-05-09T19:15:13.340Z,100.00
2023-05-09T19:17:40.507Z,100.00
2023-05-09T19:20:08.564Z,100.00
2023-05-09T19:22:35.758Z,100.00
2023-05-09T19:25:02.590Z,100.00
2023-05-09T19:27:29.276Z,100.00
2023-05-09T19:29:55.890Z,100.00
2023-05-09T19:32:22.547Z,100.00
2023-05-09T19:34:49.198Z,100.00
2023-05-09T19:37:15.866Z,100.00
2023-05-09T19:39:42.491Z,100.00
2023-05-09T19:42:09.229Z,100.00
2023-05-09T19:44:35.908Z,100.00
2023-05-09T19:47:05.449Z,100.00
2023-05-09T19:49:32.939Z,100.00
2023-05-09T19:51:59.560Z,100.00
2023-05-09T19:54:27.160Z,100.00
2023-05-09T19:56:54.009Z,100.00
2023-05-09T19:59:20.828Z,100.00
2023-05-09T20:01:47.533Z,100.00
2023-05-09T20:04:14.365Z,100.00
2023-05-09T20:06:41.393Z,100.00
2023-05-09T20:09:08.152Z,100.00
2023-05-09T20:11:34.990Z,100.00
2023-05-09T20:14:01.651Z,100.00
2023-05-09T20:16:28.733Z,100.00
2023-05-09T20:18:55.871Z,100.00
2023-05-09T20:21:22.538Z,100.00
2023-05-09T20:23:49.256Z,100.00
2023-05-09T20:26:15.949Z,100.00
2023-05-09T20:28:42.675Z,100.00
2023-05-09T20:31:09.382Z,100.00
2023-05-09T20:33:36.174Z,100.00
2023-05-09T20:36:02.800Z,100.00
2023-05-09T20:38:29.471Z,100.00
2023-05-09T20:40:56.085Z,100.00
2023-05-09T20:43:22.831Z,100.00
2023-05-09T20:45:50.286Z,100.00
2023-05-09T20:48:17.368Z,100.00
2023-05-09T20:50:44.048Z,100.00
2023-05-09T20:53:10.685Z,100.00
2023-05-09T20:55:37.410Z,100.00
2023-05-09T20:58:04.113Z,100.00
2023-05-09T21:03:02.835Z,100.00
2023-05-09T21:05:29.617Z,100.00
2023-05-09T21:07:56.229Z,100.00
2023-05-09T21:12:54.201Z,100.00
2023-05-09T21:15:21.012Z,100.00
2023-05-09T21:17:47.732Z,100.00
2023-05-09T21:20:14.861Z,100.00
2023-05-09T21:25:19.323Z,100.00
2023-05-09T21:27:46.530Z,100.00
2023-05-09T21:30:13.427Z,100.00
2023-05-09T21:32:40.420Z,100.00
2023-05-09T21:35:11.119Z,100.00
2023-05-09T21:37:37.783Z,100.00
2023-05-09T21:40:05.908Z,100.00
2023-05-09T21:42:32.646Z,100.00
2023-05-09T21:44:59.242Z,100.00
2023-05-09T21:47:26.149Z,100.00
2023-05-09T21:49:53.076Z,100.00
2023-05-09T21:52:19.784Z,100.00
2023-05-09T21:54:46.520Z,100.00
2023-05-09T21:57:13.128Z,100.00
2023-05-09T21:59:39.738Z,100.00
2023-05-09T22:02:06.387Z,100.00
2023-05-09T22:04:33.080Z,100.00
2023-05-09T22:06:59.707Z,100.00
2023-05-09T22:09:26.377Z,100.00
2023-05-09T22:11:53.281Z,100.00
2023-05-09T22:14:19.963Z,100.00
2023-05-09T22:16:46.681Z,100.00
2023-05-09T22:19:13.708Z,100.00
2023-05-09T22:21:40.453Z,100.00
2023-05-09T22:24:07.971Z,100.00
2023-05-09T22:26:34.742Z,100.00
2023-05-09T22:29:01.484Z,100.00
2023-05-09T22:31:28.180Z,100.00
2023-05-09T22:33:54.833Z,100.00
2023-05-09T22:36:22.028Z,100.00
2023-05-09T22:38:48.680Z,100.00
2023-05-09T22:41:15.348Z,100.00
2023-05-09T22:43:42.010Z,100.00
2023-05-09T22:46:09.053Z,100.00
2023-05-09T22:48:35.850Z,100.00
2023-05-09T22:51:02.863Z,100.00
2023-05-09T22:53:31.157Z,100.00
2023-05-09T22:55:58.043Z,100.00
2023-05-09T22:58:25.221Z,100.00
2023-05-09T23:00:51.923Z,100.00
2023-05-09T23:03:18.786Z,100.00
2023-05-09T23:05:45.490Z,100.00
2023-05-09T23:08:12.177Z,100.00
2023-05-09T23:10:38.857Z,100.00
2023-05-09T23:13:05.575Z,100.00
2023-05-09T23:15:32.401Z,100.00
2023-05-09T23:17:59.215Z,100.00
2023-05-09T23:20:26.495Z,100.00
2023-05-09T23:22:53.148Z,100.00
2023-05-09T23:25:19.818Z,100.00
2023-05-09T23:27:47.140Z,100.00
2023-05-09T23:30:14.104Z,100.00
2023-05-09T23:32:41.006Z,100.00
2023-05-09T23:35:07.910Z,100.00
2023-05-09T23:37:34.623Z,100.00
2023-05-09T23:40:01.399Z,100.00
2023-05-09T23:45:00.014Z,100.00
2023-05-09T23:47:27.052Z,100.00
2023-05-09T23:49:53.759Z,100.00
2023-05-09T23:52:20.424Z,100.00
2023-05-09T23:54:47.069Z,100.00
2023-05-09T23:57:13.726Z,100.00
2023-05-09T23:59:42.234Z,100.00
